Ona, West Virginia
Current Conditions -  °F | °C
As of 1:54 AM on Friday 19 Dec 2014 (Local Time) from KHTS Reporting Station
Overcast Overcast  
Wind Chill: 29°   Ceiling: 6000
Heat Index: 29°   Visibility: 10mi
Dew Point: 22°   Wind: 0mph
Humidity: 75%   Direction: NA
Pressure: 30.21"   Gusts: NA
Location:  38.42°N, 82.21°W
Report Text: KHTS 190654Z 00000KT 10SM FEW022 OVC060 M02/M06 A3021 RMK AO2 T10171056
Loading
Personal Weather Stations






























Interactive Weather Map New forecast layout! Learn more

10-Day Weather Forecast

Advertisements
Track Severe Weather on mobile